Elblag, Poland
Current Conditions -  °F | °C
As of 8:00 AM on Sunday 26 Oct 2014 (Local Time) from EPGD Reporting Station
Haze Haze  
Wind Chill: 40°   Ceiling: 1300
Heat Index: 43°   Visibility: 1.8mi
Dew Point: 39°   Wind: 5mph
Humidity: 87%   Direction: 190°S
Pressure: 30.24"   Gusts: NA
Location:  54.18°N, 19.4°E
Report Text: EPGD 260600Z 19004KT 130V240 3000 BR OVC013 06/04 Q1024
Loading
Personal Weather Stations






























Interactive Weather Map
Tropical Storm Tracking
New forecast layout! Learn more

10-Day Weather Forecast

Advertisements
Track Severe Weather on mobile